createdAt,value
2024-01-19T00:02:18.830Z,96626.96
2024-01-19T00:04:46.179Z,96636.13
2024-01-19T00:07:14.070Z,96643.88
2024-01-19T00:09:41.105Z,96657.87
2024-01-19T00:12:08.451Z,96668.47
2024-01-19T00:14:35.876Z,96671.86
2024-01-19T00:17:03.037Z,96679.05
2024-01-19T00:19:30.040Z,96682.20
2024-01-19T00:21:57.263Z,96685.63
2024-01-19T00:24:24.477Z,96685.35
2024-01-19T00:26:52.533Z,96692.39
2024-01-19T00:29:19.761Z,96696.39
2024-01-19T00:31:48.449Z,96700.88
2024-01-19T00:34:17.227Z,96703.00
2024-01-19T00:36:44.824Z,96708.86
2024-01-19T00:39:12.078Z,96713.98
2024-01-19T00:41:39.550Z,96719.40
2024-01-19T00:44:06.812Z,96722.95
2024-01-19T00:46:34.046Z,96729.52
2024-01-19T00:49:01.400Z,96735.67
2024-01-19T00:51:28.838Z,96737.73
2024-01-19T00:53:56.165Z,96735.34
2024-01-19T00:56:23.673Z,96735.77
2024-01-19T00:58:50.985Z,96741.46
2024-01-19T01:01:18.274Z,96740.33
2024-01-19T01:03:46.070Z,96747.27
2024-01-19T01:06:13.364Z,96753.75
2024-01-19T01:08:40.910Z,96756.04
2024-01-19T01:11:10.213Z,96762.24
2024-01-19T01:13:37.683Z,96765.04
2024-01-19T01:16:05.119Z,96771.48
2024-01-19T01:18:32.348Z,96773.84
2024-01-19T01:20:59.661Z,96769.85
2024-01-19T01:23:27.164Z,96775.77
2024-01-19T01:25:54.598Z,96776.02
2024-01-19T01:28:21.830Z,96770.77
2024-01-19T01:30:49.095Z,96777.45
2024-01-19T01:33:17.000Z,96780.36
2024-01-19T01:35:44.681Z,96781.73
2024-01-19T01:38:13.037Z,96785.23
2024-01-19T01:40:40.289Z,96788.40
2024-01-19T01:43:07.937Z,96788.88
2024-01-19T01:45:35.495Z,96798.79
2024-01-19T01:48:03.523Z,96802.57
2024-01-19T01:50:31.434Z,96812.61
2024-01-19T01:52:59.183Z,96812.80
2024-01-19T01:55:26.893Z,96818.70
2024-01-19T01:57:54.457Z,96821.55
2024-01-19T02:04:06.094Z,96836.79
2024-01-19T02:06:54.663Z,96837.94
2024-01-19T02:09:55.750Z,96844.27
2024-01-19T02:12:53.707Z,96855.36
2024-01-19T02:16:01.716Z,96853.12
2024-01-19T02:18:49.883Z,96860.10
2024-01-19T02:21:50.177Z,96872.05
2024-01-19T02:24:20.317Z,96877.29
2024-01-19T02:27:47.183Z,96873.27
2024-01-19T02:31:14.077Z,96875.68
2024-01-19T02:34:41.413Z,96876.45
2024-01-19T02:37:40.842Z,96877.98
2024-01-19T02:40:57.421Z,96884.09
2024-01-19T02:44:22.376Z,96886.55
2024-01-19T02:47:49.568Z,96887.29
2024-01-19T02:50:45.698Z,96886.30
2024-01-19T02:54:12.842Z,96895.39
2024-01-19T02:57:44.134Z,96895.88
2024-01-19T03:01:11.179Z,96897.19
2024-01-19T03:04:58.044Z,96895.92
2024-01-19T03:08:30.461Z,96898.91
2024-01-19T03:12:01.832Z,96895.56
2024-01-19T03:15:48.613Z,96900.44
2024-01-19T03:19:35.493Z,96907.30
2024-01-19T03:23:06.078Z,96912.94
2024-01-19T03:26:33.491Z,96913.50
2024-01-19T03:30:00.609Z,96913.54
2024-01-19T03:33:28.015Z,96926.89
2024-01-19T03:37:14.572Z,96946.18
2024-01-19T03:40:41.499Z,96954.86
2024-01-19T03:43:51.317Z,96964.59
2024-01-19T03:47:38.319Z,96976.98
2024-01-19T03:51:09.041Z,96988.14
2024-01-19T03:54:37.159Z,97002.59
2024-01-19T03:58:27.295Z,97008.11
2024-01-19T04:02:00.945Z,97010.48
2024-01-19T04:05:48.403Z,97018.95
2024-01-19T04:09:35.184Z,97020.05
2024-01-19T04:13:02.683Z,97018.23
2024-01-19T04:16:49.441Z,97030.63
2024-01-19T04:20:36.646Z,97033.03
2024-01-19T04:24:23.359Z,97040.61
2024-01-19T04:27:51.126Z,97042.27
2024-01-19T04:30:59.564Z,97045.19
2024-01-19T04:34:46.470Z,97047.88
2024-01-19T04:38:26.884Z,97052.46
2024-01-19T04:42:13.674Z,97055.72
2024-01-19T04:46:00.786Z,97053.10
2024-01-19T04:49:29.143Z,97064.52
2024-01-19T04:52:59.237Z,97079.44
2024-01-19T04:56:37.975Z,97081.90
2024-01-19T05:00:04.855Z,97073.45
2024-01-19T05:03:51.814Z,97087.14
2024-01-19T05:07:18.676Z,97097.79
2024-01-19T05:10:46.152Z,97105.22
2024-01-19T05:14:13.446Z,97118.98
2024-01-19T05:18:00.324Z,97137.23
2024-01-19T05:21:35.934Z,97147.92
2024-01-19T05:25:03.397Z,97151.96
2024-01-19T05:28:53.164Z,97155.50
2024-01-19T05:32:22.619Z,97161.60
2024-01-19T05:35:49.865Z,97165.80
2024-01-19T05:39:16.770Z,97175.12
2024-01-19T05:43:05.908Z,97186.30
2024-01-19T05:46:51.690Z,97192.00
2024-01-19T05:50:38.612Z,97194.92
2024-01-19T05:54:25.303Z,97201.72
2024-01-19T05:58:12.652Z,97208.05
2024-01-19T06:01:59.518Z,97204.50
2024-01-19T06:05:49.541Z,97212.02
2024-01-19T06:09:36.518Z,97216.40
2024-01-19T06:17:08.290Z,97229.89
2024-01-19T06:20:55.369Z,97227.41
2024-01-19T06:24:42.693Z,97247.85
2024-01-19T06:28:30.271Z,97248.22
2024-01-19T06:32:17.368Z,97247.58
2024-01-19T06:36:05.241Z,97247.57
2024-01-19T06:39:52.701Z,97253.80
2024-01-19T06:43:39.855Z,97259.77
2024-01-19T06:47:28.880Z,97269.77
2024-01-19T06:51:16.196Z,97279.67
2024-01-19T06:55:03.029Z,97274.84
2024-01-19T06:58:49.971Z,97273.73
2024-01-19T07:02:37.129Z,97277.11
2024-01-19T07:06:29.892Z,97281.88
2024-01-19T07:10:16.861Z,97273.01
2024-01-19T07:14:03.601Z,97272.48
2024-01-19T07:17:51.935Z,97273.34
2024-01-19T07:21:26.247Z,97284.05
2024-01-19T07:25:13.289Z,97291.40
2024-01-19T07:29:03.465Z,97288.72
2024-01-19T07:33:01.318Z,97306.20
2024-01-19T07:36:38.539Z,97301.41
2024-01-19T07:40:06.156Z,97297.70
2024-01-19T07:43:54.507Z,97291.39
2024-01-19T07:51:08.458Z,97295.17
2024-01-19T07:54:35.933Z,97307.19
2024-01-19T07:58:22.858Z,97306.38
2024-01-19T08:02:09.723Z,97311.27
2024-01-19T08:05:56.987Z,97319.56
2024-01-19T08:09:43.756Z,97320.66
2024-01-19T08:13:14.132Z,97322.30
2024-01-19T08:17:01.904Z,97329.73
2024-01-19T08:20:48.981Z,97329.33
2024-01-19T08:24:35.801Z,97335.45
2024-01-19T08:28:23.187Z,97338.60
2024-01-19T08:32:14.703Z,97346.55
2024-01-19T08:36:02.260Z,97359.27
2024-01-19T08:39:49.285Z,97360.93
2024-01-19T08:43:36.495Z,97372.02
2024-01-19T08:46:26.648Z,97380.14
2024-01-19T08:49:57.174Z,97390.86
2024-01-19T08:53:26.108Z,97398.33
2024-01-19T08:56:38.748Z,97406.23
2024-01-19T08:59:08.222Z,97413.12
2024-01-19T09:01:35.805Z,97421.54
2024-01-19T09:04:03.338Z,97427.87
2024-01-19T09:06:31.146Z,97435.70
2024-01-19T09:09:02.784Z,97441.29
2024-01-19T09:11:30.859Z,97446.68
2024-01-19T09:13:58.300Z,97455.00
2024-01-19T09:16:25.559Z,97457.25
2024-01-19T09:18:53.144Z,97457.45
2024-01-19T09:21:20.887Z,97459.95
2024-01-19T09:23:48.118Z,97464.80
2024-01-19T09:26:22.536Z,97472.31
2024-01-19T09:28:51.862Z,97481.11
2024-01-19T09:31:19.333Z,97485.33
2024-01-19T09:33:47.167Z,97496.52
2024-01-19T09:36:15.192Z,97503.32
2024-01-19T09:38:44.652Z,97507.09
2024-01-19T09:41:33.989Z,97509.33
2024-01-19T09:44:03.654Z,97509.48
2024-01-19T09:46:31.104Z,97511.86
2024-01-19T09:49:21.625Z,97513.23
2024-01-19T09:52:12.606Z,97514.73
2024-01-19T09:54:41.759Z,97512.06
2024-01-19T09:57:08.899Z,97514.41
2024-01-19T09:59:36.130Z,97519.19
2024-01-19T10:02:03.942Z,97512.02
2024-01-19T10:04:31.540Z,97511.32
2024-01-19T10:06:58.913Z,97515.12
2024-01-19T10:09:26.575Z,97509.65
2024-01-19T10:11:55.769Z,97513.11
2024-01-19T10:14:33.328Z,97516.17
2024-01-19T10:17:02.689Z,97520.52
2024-01-19T10:19:32.816Z,97519.06
2024-01-19T10:22:29.499Z,97519.95
2024-01-19T10:25:09.895Z,97525.45
2024-01-19T10:27:54.696Z,97515.69
2024-01-19T10:30:31.649Z,97515.33
2024-01-19T10:33:08.885Z,97516.63
2024-01-19T10:35:41.455Z,97513.75
2024-01-19T10:38:11.163Z,97512.92
2024-01-19T10:40:38.335Z,97518.05
2024-01-19T10:43:08.594Z,97514.81
2024-01-19T10:45:39.981Z,97516.14
2024-01-19T10:48:08.811Z,97515.16
2024-01-19T10:50:36.807Z,97518.56
2024-01-19T10:53:14.080Z,97518.94
2024-01-19T10:55:49.993Z,97520.56
2024-01-19T10:58:21.625Z,97520.68
2024-01-19T11:00:48.844Z,97522.36
2024-01-19T11:03:18.825Z,97520.38
2024-01-19T11:05:49.031Z,97523.63
2024-01-19T11:08:16.453Z,97521.62
2024-01-19T11:10:48.887Z,97523.64
2024-01-19T11:13:19.733Z,97528.14
2024-01-19T11:15:50.821Z,97529.84
2024-01-19T11:18:18.330Z,97531.95
2024-01-19T11:20:46.375Z,97536.34
2024-01-19T11:23:14.681Z,97530.83
2024-01-19T11:26:01.360Z,97535.98
2024-01-19T11:28:51.793Z,97540.57
2024-01-19T11:31:34.439Z,97542.45
2024-01-19T11:34:02.683Z,97539.48
2024-01-19T11:36:45.295Z,97540.92
2024-01-19T11:39:15.531Z,97539.55
2024-01-19T11:41:46.238Z,97540.01
2024-01-19T11:44:44.852Z,97535.75
2024-01-19T11:47:38.214Z,97531.27
2024-01-19T11:50:07.665Z,97530.14
2024-01-19T11:52:43.311Z,97533.45
2024-01-19T11:55:34.098Z,97534.58
2024-01-19T11:58:26.618Z,97531.34
2024-01-19T12:00:59.744Z,97533.48
2024-01-19T12:03:28.938Z,97539.73
2024-01-19T12:06:02.203Z,97539.00
2024-01-19T12:08:32.679Z,97539.52
2024-01-19T12:11:12.900Z,97541.16
2024-01-19T12:13:49.168Z,97543.18
2024-01-19T12:16:27.297Z,97544.81
2024-01-19T12:18:59.040Z,97551.79
2024-01-19T12:21:30.061Z,97556.60
2024-01-19T12:23:59.079Z,97555.69
2024-01-19T12:26:29.169Z,97562.83
2024-01-19T12:28:59.076Z,97567.66
2024-01-19T12:31:38.666Z,97565.20
2024-01-19T12:34:17.541Z,97570.50
2024-01-19T12:36:47.644Z,97577.90
2024-01-19T12:39:19.269Z,97578.98
2024-01-19T12:42:11.732Z,97586.13
2024-01-19T12:44:39.100Z,97578.86
2024-01-19T12:47:06.651Z,97585.30
2024-01-19T12:49:40.175Z,97586.71
2024-01-19T12:52:13.420Z,97589.24
2024-01-19T12:54:46.579Z,97592.95
2024-01-19T12:57:20.643Z,97597.98
2024-01-19T13:00:13.319Z,97600.51
2024-01-19T13:02:43.297Z,97602.64
2024-01-19T13:05:21.602Z,97608.27
2024-01-19T13:07:53.497Z,97613.10
2024-01-19T13:10:23.573Z,97616.37
2024-01-19T13:13:04.755Z,97614.71
2024-01-19T13:15:35.728Z,97616.12
2024-01-19T13:18:19.762Z,97612.02
2024-01-19T13:20:47.261Z,97615.05
2024-01-19T13:23:15.082Z,97617.74
2024-01-19T13:25:56.759Z,97620.61
2024-01-19T13:28:24.066Z,97624.11
2024-01-19T13:30:51.713Z,97620.92
2024-01-19T13:34:19.650Z,97622.93
2024-01-19T13:38:06.974Z,97629.33
2024-01-19T13:41:55.493Z,97636.31
2024-01-19T13:45:43.267Z,97641.64
2024-01-19T13:49:31.093Z,97646.90
2024-01-19T13:53:18.693Z,97638.15
2024-01-19T13:57:06.389Z,97635.23
2024-01-19T14:00:56.812Z,97635.99
2024-01-19T14:04:44.569Z,97634.61
2024-01-19T14:08:33.853Z,97635.58
2024-01-19T14:12:22.720Z,97640.04
2024-01-19T14:16:13.504Z,97635.48
2024-01-19T14:20:01.293Z,97630.07
2024-01-19T14:23:51.251Z,97630.19
2024-01-19T14:27:41.702Z,97628.75
2024-01-19T14:31:29.532Z,97623.96
2024-01-19T14:35:17.896Z,97629.13
2024-01-19T14:39:05.905Z,97634.47
2024-01-19T14:42:59.997Z,97637.05
2024-01-19T14:46:45.371Z,97640.61
2024-01-19T14:50:39.052Z,97642.86
2024-01-19T14:54:26.900Z,97646.45
2024-01-19T14:58:14.700Z,97649.31
2024-01-19T15:02:02.863Z,97650.72
2024-01-19T15:05:50.798Z,97654.35
2024-01-19T15:09:38.590Z,97657.65
2024-01-19T15:13:26.687Z,97658.93
2024-01-19T15:17:17.428Z,97668.63
2024-01-19T15:21:06.870Z,97672.76
2024-01-19T15:24:54.653Z,97678.58
2024-01-19T15:28:43.646Z,97688.12
2024-01-19T15:32:35.784Z,97694.77
2024-01-19T15:36:22.742Z,97694.37
2024-01-19T15:40:11.335Z,97694.53
2024-01-19T15:43:07.804Z,97697.80
2024-01-19T15:46:55.103Z,97700.18
2024-01-19T15:50:20.526Z,97698.10
2024-01-19T15:53:36.696Z,97701.30
2024-01-19T15:56:39.281Z,97706.89
2024-01-19T16:00:26.813Z,97714.93
2024-01-19T16:04:17.603Z,97720.21
2024-01-19T16:08:05.365Z,97727.46
2024-01-19T16:11:53.309Z,97731.82
2024-01-19T16:15:41.279Z,97743.65
2024-01-19T16:19:29.199Z,97748.25
2024-01-19T16:23:17.083Z,97748.42
2024-01-19T16:27:05.066Z,97757.25
2024-01-19T16:30:53.450Z,97758.91
2024-01-19T16:34:41.576Z,97768.60
2024-01-19T16:38:32.166Z,97772.01
2024-01-19T16:42:23.660Z,97781.95
2024-01-19T16:46:12.468Z,97793.50
2024-01-19T16:50:03.176Z,97798.23
2024-01-19T16:53:50.983Z,97815.58
2024-01-19T16:57:41.590Z,97826.98
2024-01-19T17:01:30.795Z,97829.59
2024-01-19T17:05:18.968Z,97839.17
2024-01-19T17:09:07.780Z,97843.63
2024-01-19T17:12:57.015Z,97848.50
2024-01-19T17:16:25.757Z,97854.48
2024-01-19T17:20:13.228Z,97865.50
2024-01-19T17:24:09.375Z,97872.41
2024-01-19T17:27:57.253Z,97875.62
2024-01-19T17:31:46.468Z,97876.17
2024-01-19T17:35:34.837Z,97881.32
2024-01-19T17:39:30.452Z,97888.04
2024-01-19T17:43:16.648Z,97889.81
2024-01-19T17:47:10.503Z,97896.70
2024-01-19T17:50:58.634Z,97899.88
2024-01-19T17:54:46.753Z,97906.58
2024-01-19T17:58:35.212Z,97913.15
2024-01-19T18:02:24.369Z,97923.14
2024-01-19T18:06:12.015Z,97920.88
2024-01-19T18:10:05.299Z,97924.23
2024-01-19T18:13:54.551Z,97931.33
2024-01-19T18:17:44.698Z,97934.48
2024-01-19T18:21:47.129Z,97938.36
2024-01-19T18:25:39.975Z,97948.16
2024-01-19T18:29:27.618Z,97961.22
2024-01-19T18:33:17.772Z,97960.70
2024-01-19T18:37:06.919Z,97964.29
2024-01-19T18:44:41.615Z,97982.39
2024-01-19T18:48:29.355Z,97995.95
2024-01-19T18:52:17.615Z,98002.02
2024-01-19T18:56:05.515Z,98007.24
2024-01-19T18:59:53.892Z,98013.02
2024-01-19T19:03:44.052Z,98015.00
2024-01-19T19:06:19.141Z,98011.73
2024-01-19T19:08:51.398Z,98012.54
2024-01-19T19:11:19.901Z,98011.83
2024-01-19T19:13:49.465Z,98015.75
2024-01-19T19:16:26.356Z,98013.54
2024-01-19T19:19:02.907Z,98021.00
2024-01-19T19:21:30.176Z,98024.42
2024-01-19T19:23:58.153Z,98024.75
2024-01-19T19:26:25.441Z,98028.50
2024-01-19T19:28:55.623Z,98036.14
2024-01-19T19:31:22.794Z,98037.15
2024-01-19T19:33:49.757Z,98037.66
2024-01-19T19:36:16.920Z,98043.27
2024-01-19T19:38:45.789Z,98049.06
2024-01-19T19:41:14.056Z,98049.40
2024-01-19T19:43:41.902Z,98050.73
2024-01-19T19:46:15.354Z,98049.73
2024-01-19T19:48:43.883Z,98053.14
2024-01-19T19:51:11.563Z,98051.61
2024-01-19T19:53:39.279Z,98054.16
2024-01-19T19:56:09.405Z,98051.80
2024-01-19T19:58:39.370Z,98050.25
2024-01-19T20:01:11.094Z,98053.81
2024-01-19T20:03:40.342Z,98058.23
2024-01-19T20:06:10.974Z,98062.83
2024-01-19T20:08:38.053Z,98068.45
2024-01-19T20:11:07.472Z,98077.80
2024-01-19T20:13:35.155Z,98076.44
2024-01-19T20:16:02.526Z,98080.52
2024-01-19T20:18:31.405Z,98087.82
2024-01-19T20:20:59.441Z,98088.52
2024-01-19T20:23:27.265Z,98089.02
2024-01-19T20:25:54.744Z,98093.78
2024-01-19T20:28:22.684Z,98095.98
2024-01-19T20:30:49.944Z,98092.41
2024-01-19T20:33:18.024Z,98098.34
2024-01-19T20:35:46.421Z,98100.37
2024-01-19T20:38:14.351Z,98105.65
2024-01-19T20:40:42.572Z,98106.31
2024-01-19T20:43:10.777Z,98112.77
2024-01-19T20:45:41.225Z,98113.96
2024-01-19T20:48:08.461Z,98118.05
2024-01-19T20:50:35.541Z,98118.73
2024-01-19T20:53:05.149Z,98124.00
2024-01-19T20:55:32.689Z,98126.90
2024-01-19T20:58:01.772Z,98124.33
2024-01-19T21:00:30.168Z,98125.17
2024-01-19T21:02:57.731Z,98123.47
2024-01-19T21:05:25.158Z,98132.80
2024-01-19T21:07:55.588Z,98140.26
2024-01-19T21:10:27.156Z,98141.27
2024-01-19T21:12:56.604Z,98143.85
2024-01-19T21:15:26.096Z,98143.17
2024-01-19T21:17:55.077Z,98143.02
2024-01-19T21:20:24.695Z,98147.61
2024-01-19T21:22:53.583Z,98148.63
2024-01-19T21:25:22.053Z,98148.98
2024-01-19T21:27:49.497Z,98161.36
2024-01-19T21:30:17.065Z,98173.39
2024-01-19T21:32:44.327Z,98175.09
2024-01-19T21:35:11.906Z,98180.55
2024-01-19T21:37:40.056Z,98177.14
2024-01-19T21:40:12.276Z,98178.02
2024-01-19T21:42:45.788Z,98184.98
2024-01-19T21:45:15.039Z,98177.34
2024-01-19T21:47:44.134Z,98186.01
2024-01-19T21:50:12.172Z,98194.16
2024-01-19T21:52:40.457Z,98194.51
2024-01-19T21:55:08.459Z,98194.53
2024-01-19T21:57:36.837Z,98196.59
2024-01-19T22:00:04.855Z,98198.80
2024-01-19T22:02:32.555Z,98198.80
2024-01-19T22:05:01.165Z,98197.27
2024-01-19T22:07:28.434Z,98201.86
2024-01-19T22:09:59.784Z,98207.64
2024-01-19T22:12:27.129Z,98209.67
2024-01-19T22:14:54.305Z,98212.56
2024-01-19T22:17:21.935Z,98208.81
2024-01-19T22:19:50.294Z,98213.07
2024-01-19T22:22:17.639Z,98213.23
2024-01-19T22:24:44.798Z,98219.52
2024-01-19T22:27:11.983Z,98222.03
2024-01-19T22:29:39.877Z,98218.30
2024-01-19T22:32:07.435Z,98216.59
2024-01-19T22:34:34.784Z,98211.98
2024-01-19T22:37:02.639Z,98222.54
2024-01-19T22:39:30.320Z,98226.92
2024-01-19T22:41:58.400Z,98222.89
2024-01-19T22:44:25.813Z,98221.37
2024-01-19T22:46:53.351Z,98225.13
2024-01-19T22:49:21.059Z,98227.67
2024-01-19T22:51:48.394Z,98234.98
2024-01-19T22:54:15.630Z,98233.10
2024-01-19T22:56:43.115Z,98234.44
2024-01-19T22:59:10.876Z,98232.94
2024-01-19T23:01:38.135Z,98241.26
2024-01-19T23:04:05.898Z,98240.76
2024-01-19T23:06:33.193Z,98240.40
2024-01-19T23:09:01.046Z,98238.37
2024-01-19T23:11:29.712Z,98240.90
2024-01-19T23:13:57.509Z,98235.14
2024-01-19T23:16:24.725Z,98230.90
2024-01-19T23:18:52.474Z,98232.61
2024-01-19T23:21:20.020Z,98243.99
2024-01-19T23:23:47.665Z,98247.38
2024-01-19T23:26:15.115Z,98246.89
2024-01-19T23:28:43.089Z,98247.21
2024-01-19T23:31:13.662Z,98249.75
2024-01-19T23:33:41.461Z,98250.57
2024-01-19T23:36:12.091Z,98250.54
2024-01-19T23:38:40.314Z,98255.11
2024-01-19T23:41:07.690Z,98253.38
2024-01-19T23:43:35.345Z,98254.23
2024-01-19T23:46:03.068Z,98256.82
2024-01-19T23:48:30.238Z,98260.55
2024-01-19T23:50:57.449Z,98257.33
2024-01-19T23:53:24.769Z,98258.86
2024-01-19T23:55:51.986Z,98260.54
2024-01-19T23:58:19.029Z,98260.38
